Date,TemperatureHighF,TemperatureAvgF,TemperatureLowF,DewpointHighF,DewpointAvgF,DewpointLowF,HumidityHigh,HumidityAvg,HumidityLow,PressureMaxIn,PressureMinIn,WindSpeedMaxMPH,WindSpeedAvgMPH,GustSpeedMaxMPH,PrecipitationSumIn
2013-1-7,52.2,51.9,51.6,46.7,46.1,45.7,82,81,80,30.19,30.18,1,0,3,0.00
2013-1-8,58.5,48.2,41.7,46.9,42.2,37.5,89,80,54,30.28,30.19,2,1,5,0.00
2013-1-9,68.0,51.9,46.4,50.2,44.6,43.0,88,77,50,30.19,30.10,2,0,98,0.38
2013-1-10,54.5,51.8,49.1,49.9,46.4,42.9,95,82,72,30.10,29.81,4,1,7,0.02
2013-1-11,65.5,49.6,43.0,50.6,45.2,42.2,99,85,53,29.85,29.65,3,1,6,0.01
2013-1-12,70.9,51.9,41.2,47.1,44.0,36.4,95,76,39,30.12,29.84,3,1,6,0.05
2013-1-13,49.6,49.1,48.6,44.7,44.3,44.0,84,83,82,30.01,29.98,0,0,2,0.00
2013-1-14,59.5,53.6,48.0,51.2,46.7,41.1,95,78,63,29.89,29.69,4,1,8,0.01
2013-1-15,65.3,51.1,45.5,46.8,40.4,36.1,83,68,39,29.89,29.63,5,1,9,0.00
2013-1-16,48.0,44.1,41.5,44.3,40.4,37.1,94,87,81,29.55,29.40,4,1,8,0.07
2013-1-17,49.1,42.6,39.6,44.1,38.1,35.6,87,84,69,29.43,29.26,4,1,8,0.00
2013-1-18,57.4,46.0,39.6,37.3,33.6,31.8,90,63,42,29.60,29.34,4,2,12,0.00
2013-2-7,42.4,42.3,42.1,36.1,35.2,34.4,78,76,74,29.54,29.54,2,1,4,0.00
2013-2-8,55.4,46.7,42.4,34.3,30.3,25.0,71,54,39,29.70,29.54,105,4,108,0.00
2013-2-12,68.5,50.2,43.9,47.4,43.9,40.7,97,81,44,29.67,29.51,2,0,5,0.00
2013-2-13,65.8,48.2,40.8,41.8,36.3,32.6,88,66,37,29.79,29.63,4,2,9,0.00
2013-2-14,59.7,48.5,39.6,37.0,35.1,33.3,79,62,38,29.97,29.79,4,2,8,0.00
2013-2-15,63.5,48.7,39.6,40.3,37.2,34.6,84,66,41,29.99,29.91,2,0,4,0.00
2013-2-16,66.7,50.4,42.3,43.2,38.1,33.6,83,65,32,30.04,29.96,3,1,6,0.00
2013-2-17,70.0,46.6,39.7,43.9,38.2,34.4,88,73,39,30.03,29.93,4,1,7,0.00
2013-2-18,57.9,46.5,39.7,41.9,38.3,34.9,89,74,52,29.98,29.91,3,1,74,0.00
2013-2-19,64.9,48.0,37.9,36.6,33.1,26.5,80,59,30,29.99,29.90,4,1,6,0.00
2013-2-20,66.0,48.4,36.3,39.2,35.6,29.8,81,63,35,29.97,29.86,3,1,4,0.00
2013-2-21,70.2,51.2,39.2,45.4,38.6,34.7,84,65,28,29.88,29.65,2,1,4,0.00
2013-2-22,70.0,53.0,48.0,52.4,47.1,43.8,92,81,50,29.64,29.40,8,2,15,0.01
2013-3-1,56.5,51.0,44.4,42.4,39.8,37.4,84,66,51,30.11,29.83,3,2,5,0.00
2013-3-2,61.7,53.1,49.3,44.1,38.1,29.5,75,59,35,29.98,29.75,4,2,8,0.00
2013-3-3,74.5,53.5,42.3,47.3,39.9,32.5,85,62,34,30.05,29.96,4,1,8,0.00
2013-3-4,77.4,55.0,42.6,47.4,43.0,39.8,91,67,33,30.17,30.03,5,1,8,0.00
2013-3-5,61.5,53.0,43.0,46.5,41.7,32.6,88,68,39,30.17,29.93,2,1,5,0.00
2013-3-6,62.1,56.3,52.5,56.2,48.1,39.3,99,76,46,29.92,29.66,13,3,25,0.50
2013-3-7,67.5,58.1,55.4,57.0,55.6,54.7,99,92,68,29.76,29.67,4,2,7,0.00
2013-3-8,62.4,58.6,32.0,56.2,55.1,53.7,95,87,76,29.75,29.62,7,2,11,0.04
2013-3-17,55.2,49.8,43.7,45.2,38.2,34.3,80,65,48,30.08,29.75,8,3,15,0.02
2013-3-18,59.5,55.2,51.4,55.7,49.7,45.0,95,82,68,29.74,29.46,14,5,23,0.44
2013-3-19,76.1,59.1,51.1,48.6,45.5,43.5,81,63,35,29.79,29.64,3,1,6,0.01
2013-3-20,66.4,53.0,46.6,49.9,44.6,38.9,92,75,44,29.78,29.64,4,1,8,0.07
2013-3-21,77.2,59.1,47.7,51.5,42.6,32.5,95,59,28,29.94,29.62,5,1,10,0.00
2013-3-22,73.8,57.9,44.1,49.9,42.1,29.8,84,60,23,29.93,29.84,2,1,4,0.00
2013-3-23,74.1,57.6,46.4,51.4,48.0,43.6,91,72,44,29.91,29.76,4,1,8,0.00
2013-3-24,78.4,65.3,50.7,50.0,41.8,30.8,90,47,22,29.75,29.46,8,4,24,0.00
2013-4-18,93.0,76.1,64.8,58.6,53.3,46.8,80,50,23,30.14,29.47,2,0,5,0.22
2013-5-20,68.5,65.6,64.4,51.1,50.4,48.6,62,58,49,30.10,30.08,2,0,3,0.22
2013-5-21,72.1,65.5,59.9,56.9,51.8,45.3,87,63,40,30.09,29.83,4,1,8,0.01
2013-5-22,79.0,65.9,59.4,64.4,58.6,55.7,92,78,47,29.83,29.39,4,2,7,0.00
2013-5-23,70.0,63.2,59.0,60.3,57.6,53.5,95,83,56,29.67,29.43,2,0,4,0.00
2013-5-24,81.5,66.7,59.4,61.8,51.0,42.6,88,60,35,29.87,29.64,4,2,8,0.00
2013-6-9,97.0,75.5,66.4,67.7,60.4,48.5,86,62,35,29.97,29.85,8,1,11,0.00
2013-6-10,86.4,73.0,66.4,65.4,59.9,53.9,90,65,41,29.90,29.84,4,1,6,0.00
2013-6-11,92.7,75.6,63.3,61.8,59.0,55.7,87,59,31,29.94,29.88,3,1,5,0.00
2013-6-12,93.2,77.8,65.1,61.9,55.6,47.3,85,51,24,30.01,29.93,4,1,9,0.00
2013-6-13,86.7,73.8,66.9,53.9,51.9,47.3,59,48,27,30.04,29.95,4,1,28,0.06
2013-6-14,100.0,78.1,67.1,60.7,54.8,50.7,63,46,24,30.03,29.98,3,1,4,0.00
2013-6-15,101.1,82.3,69.8,66.7,63.0,60.7,79,55,31,30.06,30.01,3,0,4,0.00
2013-6-16,102.4,85.1,70.5,68.5,64.8,63.1,80,55,32,30.07,30.03,2,0,4,0.00
2013-6-17,102.7,84.8,69.3,68.4,64.2,57.9,88,54,29,30.06,29.98,2,1,4,0.00
2013-6-18,107.4,87.8,73.8,71.5,64.9,62.1,71,48,32,30.00,29.97,3,0,5,0.00
2013-6-19,108.0,89.6,75.0,70.2,64.5,58.5,75,46,28,30.02,29.97,3,1,4,0.00
2013-6-20,107.6,89.5,77.0,70.6,64.5,57.8,68,46,24,30.02,29.97,3,1,6,0.00
2013-6-21,104.0,86.6,75.4,72.9,66.0,59.3,82,53,25,30.03,29.99,3,1,6,0.00
2013-6-22,100.4,85.0,71.8,70.1,64.7,56.3,81,54,33,30.05,29.99,2,1,4,0.00
2013-7-20,90.7,83.9,79.9,70.9,68.0,63.8,73,59,41,30.06,29.92,1,0,4,0.00
2013-7-21,103.3,83.3,69.6,71.4,66.1,60.0,88,60,31,30.03,29.93,8,1,23,0.20
2013-8-27,100.0,78.2,71.1,71.7,68.6,65.8,91,75,37,29.88,29.82,2,1,5,0.01
2013-8-28,98.6,79.9,68.5,70.6,65.8,22.4,94,66,10,29.97,29.83,97,2,97,0.00
2013-8-29,93.9,79.7,68.7,69.2,65.6,62.0,88,65,38,30.07,29.97,2,0,4,0.00
2013-8-30,81.9,74.0,69.6,70.4,66.4,63.7,84,78,56,30.06,29.97,3,1,4,0.00
2013-8-31,93.9,77.7,69.3,68.7,65.0,61.8,81,67,41,30.05,29.99,4,1,27,8.83
2013-9-1,100.0,80.9,67.3,67.2,61.3,51.0,83,54,28,30.07,30.00,4,1,5,0.00
2013-9-2,92.5,77.8,67.1,65.8,62.3,54.4,82,61,31,30.13,30.05,2,1,4,0.00
2013-10-6,93.7,74.1,69.1,67.6,65.9,29.0,89,76,57,30.11,29.97,25,1,68,0.11
2013-11-10,64.0,60.6,54.0,57.4,54.2,49.9,89,80,70,29.64,29.48,4,2,10,0.00
2013-12-5,44.2,34.6,32.0,40.5,40.2,38.5,85,19,84,30.13,30.12,1,0,2,0.00